sensor_id;sensor_type;location;lat;lon;timestamp;pressure;altitude;pressure_sealevel;temperature;humidity
64078;BME280;51039;49.696;10.808;2022-10-16T00:01:05;98205.53;;;14.82;100.00
64078;BME280;51039;49.696;10.808;2022-10-16T00:03:36;98205.31;;;14.84;100.00
64078;BME280;51039;49.696;10.808;2022-10-16T00:06:01;98206.34;;;14.83;100.00
64078;BME280;51039;49.696;10.808;2022-10-16T00:08:27;98208.66;;;14.79;100.00
64078;BME280;51039;49.696;10.808;2022-10-16T00:10:57;98212.59;;;14.77;100.00
64078;BME280;51039;49.696;10.808;2022-10-16T00:13:24;98218.53;;;14.67;100.00
64078;BME280;51039;49.696;10.808;2022-10-16T00:15:49;98217.59;;;14.61;100.00
64078;BME280;51039;49.696;10.808;2022-10-16T00:18:14;98215.63;;;14.57;100.00
64078;BME280;51039;49.696;10.808;2022-10-16T00:20:39;98209.94;;;14.53;100.00
64078;BME280;51039;49.696;10.808;2022-10-16T00:23:05;98208.53;;;14.50;100.00
64078;BME280;51039;49.696;10.808;2022-10-16T00:25:30;98222.06;;;14.49;100.00
64078;BME280;51039;49.696;10.808;2022-10-16T00:27:58;98212.13;;;14.44;100.00
64078;BME280;51039;49.696;10.808;2022-10-16T00:30:24;98203.31;;;14.44;100.00
64078;BME280;51039;49.696;10.808;2022-10-16T00:32:51;98193.09;;;14.41;100.00
64078;BME280;51039;49.696;10.808;2022-10-16T00:35:17;98200.16;;;14.35;100.00
64078;BME280;51039;49.696;10.808;2022-10-16T00:37:42;98194.25;;;14.33;100.00
64078;BME280;51039;49.696;10.808;2022-10-16T00:40:07;98192.97;;;14.36;100.00
64078;BME280;51039;49.696;10.808;2022-10-16T00:42:33;98191.94;;;14.37;100.00
64078;BME280;51039;49.696;10.808;2022-10-16T00:44:58;98193.34;;;14.39;100.00
64078;BME280;51039;49.696;10.808;2022-10-16T00:47:28;98191.25;;;14.41;100.00
64078;BME280;51039;49.696;10.808;2022-10-16T00:49:58;98202.38;;;14.38;100.00
64078;BME280;51039;49.696;10.808;2022-10-16T00:52:28;98209.44;;;14.32;100.00
64078;BME280;51039;49.696;10.808;2022-10-16T00:54:53;98211.31;;;14.32;100.00
64078;BME280;51039;49.696;10.808;2022-10-16T00:57:19;98216.38;;;14.33;100.00
64078;BME280;51039;49.696;10.808;2022-10-16T00:59:45;98229.47;;;14.35;100.00
64078;BME280;51039;49.696;10.808;2022-10-16T01:18:23;98206.66;;;14.39;100.00
64078;BME280;51039;49.696;10.808;2022-10-16T01:20:55;98208.88;;;14.42;100.00
64078;BME280;51039;49.696;10.808;2022-10-16T01:28:28;98202.13;;;14.28;100.00
64078;BME280;51039;49.696;10.808;2022-10-16T01:31:01;98215.34;;;14.23;100.00
64078;BME280;51039;49.696;10.808;2022-10-16T01:33:39;98208.84;;;14.19;100.00
64078;BME280;51039;49.696;10.808;2022-10-16T01:36:18;98226.09;;;14.16;100.00
64078;BME280;51039;49.696;10.808;2022-10-16T01:38:49;98239.31;;;14.11;100.00
64078;BME280;51039;49.696;10.808;2022-10-16T01:41:21;98244.63;;;14.11;100.00
64078;BME280;51039;49.696;10.808;2022-10-16T01:43:53;98236.38;;;14.12;100.00
64078;BME280;51039;49.696;10.808;2022-10-16T01:46:30;98236.53;;;14.18;100.00
64078;BME280;51039;49.696;10.808;2022-10-16T01:48:56;98244.06;;;14.21;100.00
64078;BME280;51039;49.696;10.808;2022-10-16T01:51:24;98249.19;;;14.22;100.00
64078;BME280;51039;49.696;10.808;2022-10-16T01:53:54;98246.84;;;14.26;100.00
64078;BME280;51039;49.696;10.808;2022-10-16T01:56:24;98243.72;;;14.29;100.00
64078;BME280;51039;49.696;10.808;2022-10-16T01:58:52;98249.63;;;14.31;100.00
64078;BME280;51039;49.696;10.808;2022-10-16T02:01:23;98237.47;;;14.35;100.00
64078;BME280;51039;49.696;10.808;2022-10-16T02:03:52;98235.97;;;14.39;100.00
64078;BME280;51039;49.696;10.808;2022-10-16T02:06:22;98240.06;;;14.42;100.00
64078;BME280;51039;49.696;10.808;2022-10-16T02:08:48;98237.13;;;14.43;100.00
64078;BME280;51039;49.696;10.808;2022-10-16T02:11:13;98228.31;;;14.43;100.00
64078;BME280;51039;49.696;10.808;2022-10-16T02:13:41;98232.63;;;14.44;100.00
64078;BME280;51039;49.696;10.808;2022-10-16T02:16:11;98223.13;;;14.48;100.00
64078;BME280;51039;49.696;10.808;2022-10-16T02:18:37;98229.25;;;14.48;100.00
64078;BME280;51039;49.696;10.808;2022-10-16T02:23:35;98230.91;;;14.49;100.00
64078;BME280;51039;49.696;10.808;2022-10-16T02:26:09;98229.50;;;14.47;100.00
64078;BME280;51039;49.696;10.808;2022-10-16T02:28:42;98234.59;;;14.48;100.00
64078;BME280;51039;49.696;10.808;2022-10-16T02:31:12;98245.38;;;14.53;100.00
64078;BME280;51039;49.696;10.808;2022-10-16T02:33:43;98246.63;;;14.51;100.00
64078;BME280;51039;49.696;10.808;2022-10-16T02:36:10;98247.00;;;14.54;100.00
64078;BME280;51039;49.696;10.808;2022-10-16T02:38:37;98241.09;;;14.52;100.00
64078;BME280;51039;49.696;10.808;2022-10-16T02:41:04;98230.91;;;14.49;100.00
64078;BME280;51039;49.696;10.808;2022-10-16T02:43:30;98223.34;;;14.46;100.00
64078;BME280;51039;49.696;10.808;2022-10-16T02:45:56;98230.91;;;14.49;100.00
64078;BME280;51039;49.696;10.808;2022-10-16T02:48:21;98242.81;;;14.47;100.00
64078;BME280;51039;49.696;10.808;2022-10-16T02:50:47;98239.56;;;14.45;100.00
64078;BME280;51039;49.696;10.808;2022-10-16T02:53:12;98248.03;;;14.42;100.00
64078;BME280;51039;49.696;10.808;2022-10-16T02:55:37;98243.16;;;14.39;100.00
64078;BME280;51039;49.696;10.808;2022-10-16T02:58:02;98254.75;;;14.32;100.00
64078;BME280;51039;49.696;10.808;2022-10-16T03:00:28;98246.75;;;14.32;100.00
64078;BME280;51039;49.696;10.808;2022-10-16T03:02:53;98239.13;;;14.36;100.00
64078;BME280;51039;49.696;10.808;2022-10-16T03:05:19;98242.34;;;14.38;100.00
64078;BME280;51039;49.696;10.808;2022-10-16T03:07:44;98252.22;;;14.38;100.00
64078;BME280;51039;49.696;10.808;2022-10-16T03:10:09;98244.22;;;14.38;100.00
64078;BME280;51039;49.696;10.808;2022-10-16T03:12:35;98252.31;;;14.43;100.00
64078;BME280;51039;49.696;10.808;2022-10-16T03:15:00;98254.97;;;14.43;100.00
64078;BME280;51039;49.696;10.808;2022-10-16T03:17:26;98253.38;;;14.42;100.00
64078;BME280;51039;49.696;10.808;2022-10-16T03:19:51;98259.50;;;14.42;100.00
64078;BME280;51039;49.696;10.808;2022-10-16T03:22:17;98249.06;;;14.41;100.00
64078;BME280;51039;49.696;10.808;2022-10-16T03:24:42;98249.44;;;14.44;100.00
64078;BME280;51039;49.696;10.808;2022-10-16T03:27:07;98255.78;;;14.43;100.00
64078;BME280;51039;49.696;10.808;2022-10-16T03:29:33;98252.31;;;14.43;100.00
64078;BME280;51039;49.696;10.808;2022-10-16T03:31:58;98258.69;;;14.42;100.00
64078;BME280;51039;49.696;10.808;2022-10-16T03:34:24;98254.97;;;14.43;100.00
64078;BME280;51039;49.696;10.808;2022-10-16T03:36:50;98251.97;;;14.39;100.00
64078;BME280;51039;49.696;10.808;2022-10-16T03:39:15;98250.72;;;14.42;100.00
64078;BME280;51039;49.696;10.808;2022-10-16T03:41:41;98258.00;;;14.46;100.00
64078;BME280;51039;49.696;10.808;2022-10-16T03:44:06;98252.44;;;14.48;100.00
64078;BME280;51039;49.696;10.808;2022-10-16T03:46:31;98257.78;;;14.48;100.00
64078;BME280;51039;49.696;10.808;2022-10-16T03:48:57;98249.44;;;14.44;100.00
64078;BME280;51039;49.696;10.808;2022-10-16T03:51:22;98259.06;;;14.45;100.00
64078;BME280;51039;49.696;10.808;2022-10-16T03:53:47;98262.75;;;14.44;100.00
64078;BME280;51039;49.696;10.808;2022-10-16T03:56:13;98264.13;;;14.47;100.00
64078;BME280;51039;49.696;10.808;2022-10-16T03:58:38;98258.00;;;14.46;100.00
64078;BME280;51039;49.696;10.808;2022-10-16T04:01:03;98272.38;;;14.45;100.00
64078;BME280;51039;49.696;10.808;2022-10-16T04:03:29;98267.63;;;14.47;100.00
64078;BME280;51039;49.696;10.808;2022-10-16T04:05:54;98269.00;;;14.50;100.00
64078;BME280;51039;49.696;10.808;2022-10-16T04:08:20;98276.78;;;14.51;100.00
64078;BME280;51039;49.696;10.808;2022-10-16T04:10:45;98273.06;;;14.52;100.00
64078;BME280;51039;49.696;10.808;2022-10-16T04:13:11;98270.97;;;14.54;100.00
64078;BME280;51039;49.696;10.808;2022-10-16T04:15:36;98278.88;;;14.49;100.00
64078;BME280;51039;49.696;10.808;2022-10-16T04:18:02;98283.50;;;14.54;100.00
64078;BME280;51039;49.696;10.808;2022-10-16T04:20:29;98289.63;;;14.54;100.00
64078;BME280;51039;49.696;10.808;2022-10-16T04:22:54;98286.75;;;14.56;100.00
64078;BME280;51039;49.696;10.808;2022-10-16T04:25:20;98285.50;;;14.59;100.00
64078;BME280;51039;49.696;10.808;2022-10-16T04:27:45;98278.34;;;14.59;100.00
64078;BME280;51039;49.696;10.808;2022-10-16T04:30:10;98282.81;;;14.59;100.00
64078;BME280;51039;49.696;10.808;2022-10-16T04:32:36;98282.81;;;14.59;100.00
64078;BME280;51039;49.696;10.808;2022-10-16T04:35:01;98292.69;;;14.58;100.00
64078;BME280;51039;49.696;10.808;2022-10-16T04:37:27;98294.56;;;14.58;100.00
64078;BME280;51039;49.696;10.808;2022-10-16T04:39:53;98294.75;;;14.56;100.00
64078;BME280;51039;49.696;10.808;2022-10-16T04:42:19;98307.06;;;14.57;100.00
64078;BME280;51039;49.696;10.808;2022-10-16T04:44:45;98305.00;;;14.59;100.00
64078;BME280;51039;49.696;10.808;2022-10-16T04:47:10;98296.16;;;14.59;100.00
64078;BME280;51039;49.696;10.808;2022-10-16T04:49:36;98298.81;;;14.59;100.00
64078;BME280;51039;49.696;10.808;2022-10-16T04:52:01;98289.88;;;14.53;100.00
64078;BME280;51039;49.696;10.808;2022-10-16T04:54:27;98289.28;;;14.51;100.00
64078;BME280;51039;49.696;10.808;2022-10-16T04:56:53;98287.69;;;14.50;100.00
64078;BME280;51039;49.696;10.808;2022-10-16T04:59:18;98294.50;;;14.46;100.00
64078;BME280;51039;49.696;10.808;2022-10-16T05:01:45;98299.25;;;14.44;100.00
64078;BME280;51039;49.696;10.808;2022-10-16T05:04:10;98299.91;;;14.39;100.00
64078;BME280;51039;49.696;10.808;2022-10-16T05:06:36;98298.53;;;14.37;100.00
64078;BME280;51039;49.696;10.808;2022-10-16T05:09:03;98303.28;;;14.34;100.00
64078;BME280;51039;49.696;10.808;2022-10-16T05:11:29;98301.44;;;14.35;100.00
64078;BME280;51039;49.696;10.808;2022-10-16T05:13:54;98296.31;;;14.33;100.00
64078;BME280;51039;49.696;10.808;2022-10-16T05:16:20;98300.03;;;14.32;100.00
64078;BME280;51039;49.696;10.808;2022-10-16T05:18:45;98291.47;;;14.30;100.00
64078;BME280;51039;49.696;10.808;2022-10-16T05:21:10;98297.25;;;14.27;100.00
64078;BME280;51039;49.696;10.808;2022-10-16T05:23:36;98316.66;;;14.16;100.00
64078;BME280;51039;49.696;10.808;2022-10-16T05:26:01;98309.25;;;14.18;100.00
64078;BME280;51039;49.696;10.808;2022-10-16T05:28:27;98324.91;;;14.14;100.00
64078;BME280;51039;49.696;10.808;2022-10-16T05:30:53;98326.50;;;14.16;100.00
64078;BME280;51039;49.696;10.808;2022-10-16T05:33:19;98331.84;;;14.16;100.00
64078;BME280;51039;49.696;10.808;2022-10-16T05:35:46;98334.66;;;14.21;100.00
64078;BME280;51039;49.696;10.808;2022-10-16T05:38:11;98336.63;;;14.25;100.00
64078;BME280;51039;49.696;10.808;2022-10-16T05:40:36;98330.00;;;14.28;100.00
64078;BME280;51039;49.696;10.808;2022-10-16T05:43:02;98338.84;;;14.28;100.00
64078;BME280;51039;49.696;10.808;2022-10-16T05:45:27;98345.19;;;14.27;100.00
64078;BME280;51039;49.696;10.808;2022-10-16T05:47:52;98341.38;;;14.23;100.00
64078;BME280;51039;49.696;10.808;2022-10-16T05:50:18;98348.06;;;14.26;100.00
64078;BME280;51039;49.696;10.808;2022-10-16T05:52:43;98330.72;;;14.23;100.00
64078;BME280;51039;49.696;10.808;2022-10-16T05:55:09;98336.97;;;14.29;100.00
64078;BME280;51039;49.696;10.808;2022-10-16T05:57:34;98345.19;;;14.27;100.00
64078;BME280;51039;49.696;10.808;2022-10-16T05:59:59;98346.00;;;14.28;100.00
64078;BME280;51039;49.696;10.808;2022-10-16T06:02:25;98355.03;;;14.27;100.00
64078;BME280;51039;49.696;10.808;2022-10-16T06:04:53;98360.16;;;14.28;100.00
64078;BME280;51039;49.696;10.808;2022-10-16T06:07:18;98353.56;;;14.31;100.00
64078;BME280;51039;49.696;10.808;2022-10-16T06:09:44;98355.63;;;14.29;100.00
64078;BME280;51039;49.696;10.808;2022-10-16T06:12:12;98360.03;;;14.35;100.00
64078;BME280;51039;49.696;10.808;2022-10-16T06:14:37;98375.81;;;14.37;100.00
64078;BME280;51039;49.696;10.808;2022-10-16T06:17:03;98377.78;;;14.41;100.00
64078;BME280;51039;49.696;10.808;2022-10-16T06:19:28;98369.13;;;14.46;100.00
64078;BME280;51039;49.696;10.808;2022-10-16T06:21:53;98367.19;;;14.53;100.00
64078;BME280;51039;49.696;10.808;2022-10-16T06:24:19;98367.78;;;14.55;100.00
64078;BME280;51039;49.696;10.808;2022-10-16T06:26:44;98367.69;;;14.62;100.00
64078;BME280;51039;49.696;10.808;2022-10-16T06:29:09;98373.72;;;14.57;100.00
64078;BME280;51039;49.696;10.808;2022-10-16T06:31:35;98364.56;;;14.65;100.00
64078;BME280;51039;49.696;10.808;2022-10-16T06:34:00;98375.25;;;14.65;100.00
64078;BME280;51039;49.696;10.808;2022-10-16T06:36:26;98375.47;;;14.63;100.00
64078;BME280;51039;49.696;10.808;2022-10-16T06:38:52;98373.75;;;14.69;100.00
64078;BME280;51039;49.696;10.808;2022-10-16T06:41:18;98376.75;;;14.72;100.00
64078;BME280;51039;49.696;10.808;2022-10-16T06:43:45;98380.09;;;14.68;100.00
64078;BME280;51039;49.696;10.808;2022-10-16T06:46:12;98392.63;;;14.67;100.00
64078;BME280;51039;49.696;10.808;2022-10-16T06:48:39;98397.84;;;14.74;100.00
64078;BME280;51039;49.696;10.808;2022-10-16T06:53:32;98407.84;;;14.90;100.00
64078;BME280;51039;49.696;10.808;2022-10-16T06:56:12;98402.75;;;15.01;99.90
64078;BME280;51039;49.696;10.808;2022-10-16T06:58:40;98405.09;;;15.09;99.20
64078;BME280;51039;49.696;10.808;2022-10-16T07:01:06;98425.88;;;15.07;98.74
64078;BME280;51039;49.696;10.808;2022-10-16T07:03:33;98418.91;;;15.18;98.54
64078;BME280;51039;49.696;10.808;2022-10-16T07:06:04;98423.22;;;15.30;97.90
64078;BME280;51039;49.696;10.808;2022-10-16T07:08:34;98424.25;;;15.29;97.58
64078;BME280;51039;49.696;10.808;2022-10-16T07:11:02;98430.88;;;15.39;97.50
64078;BME280;51039;49.696;10.808;2022-10-16T07:13:32;98434.94;;;15.53;96.54
64078;BME280;51039;49.696;10.808;2022-10-16T07:16:03;98444.78;;;15.52;96.32
64078;BME280;51039;49.696;10.808;2022-10-16T07:18:29;98441.88;;;15.66;95.85
64078;BME280;51039;49.696;10.808;2022-10-16T07:21:02;98448.63;;;15.68;95.51
64078;BME280;51039;49.696;10.808;2022-10-16T07:23:31;98448.94;;;15.72;95.32
64078;BME280;51039;49.696;10.808;2022-10-16T07:25:56;98448.28;;;15.77;95.50
64078;BME280;51039;49.696;10.808;2022-10-16T07:28:21;98446.19;;;15.79;95.41
64078;BME280;51039;49.696;10.808;2022-10-16T07:30:47;98450.16;;;15.88;94.96
64078;BME280;51039;49.696;10.808;2022-10-16T07:33:12;98451.19;;;15.87;94.99
64078;BME280;51039;49.696;10.808;2022-10-16T07:35:38;98449.06;;;15.89;95.16
64078;BME280;51039;49.696;10.808;2022-10-16T07:38:12;98447.22;;;16.01;94.39
64078;BME280;51039;49.696;10.808;2022-10-16T07:40:38;98453.22;;;16.08;93.87
64078;BME280;51039;49.696;10.808;2022-10-16T07:43:03;98453.47;;;16.36;93.08
64078;BME280;51039;49.696;10.808;2022-10-16T07:45:30;98457.13;;;16.87;90.85
64078;BME280;51039;49.696;10.808;2022-10-16T07:47:55;98471.28;;;17.33;88.89
64078;BME280;51039;49.696;10.808;2022-10-16T07:50:20;98471.94;;;17.23;87.66
64078;BME280;51039;49.696;10.808;2022-10-16T07:52:46;98460.31;;;17.01;88.67
64078;BME280;51039;49.696;10.808;2022-10-16T07:55:11;98476.00;;;17.09;89.01
64078;BME280;51039;49.696;10.808;2022-10-16T07:57:36;98470.63;;;16.92;89.47
64078;BME280;51039;49.696;10.808;2022-10-16T08:00:02;98470.94;;;16.96;89.51
64078;BME280;51039;49.696;10.808;2022-10-16T08:02:27;98472.56;;;16.97;89.18
64078;BME280;51039;49.696;10.808;2022-10-16T08:04:53;98481.19;;;17.16;88.95
64078;BME280;51039;49.696;10.808;2022-10-16T08:07:18;98472.16;;;17.22;88.26
64078;BME280;51039;49.696;10.808;2022-10-16T08:09:43;98472.50;;;17.25;89.41
64078;BME280;51039;49.696;10.808;2022-10-16T08:12:09;98481.75;;;17.18;88.43
64078;BME280;51039;49.696;10.808;2022-10-16T08:14:35;98477.91;;;16.97;88.79
64078;BME280;51039;49.696;10.808;2022-10-16T08:17:01;98487.97;;;17.06;89.14
64078;BME280;51039;49.696;10.808;2022-10-16T08:19:27;98485.53;;;16.76;89.88
64078;BME280;51039;49.696;10.808;2022-10-16T08:21:52;98483.34;;;16.73;91.21
64078;BME280;51039;49.696;10.808;2022-10-16T08:24:18;98486.50;;;16.99;89.66
64078;BME280;51039;49.696;10.808;2022-10-16T08:26:43;98480.94;;;17.17;88.90
64078;BME280;51039;49.696;10.808;2022-10-16T08:29:08;98487.81;;;17.30;87.64
64078;BME280;51039;49.696;10.808;2022-10-16T08:31:33;98486.13;;;17.58;86.25
64078;BME280;51039;49.696;10.808;2022-10-16T08:33:59;98481.47;;;17.70;86.28
64078;BME280;51039;49.696;10.808;2022-10-16T08:36:25;98485.72;;;17.49;87.12
64078;BME280;51039;49.696;10.808;2022-10-16T08:38:50;98498.66;;;17.74;85.75
64078;BME280;51039;49.696;10.808;2022-10-16T08:41:18;98506.56;;;18.20;84.08
64078;BME280;51039;49.696;10.808;2022-10-16T08:49:27;98514.16;;;18.06;83.64
64078;BME280;51039;49.696;10.808;2022-10-16T08:51:52;98510.47;;;17.90;84.14
64078;BME280;51039;49.696;10.808;2022-10-16T08:54:23;98506.59;;;18.03;83.50
64078;BME280;51039;49.696;10.808;2022-10-16T08:56:55;98500.91;;;17.99;84.63
64078;BME280;51039;49.696;10.808;2022-10-16T08:59:22;98508.09;;;17.94;84.66
64078;BME280;51039;49.696;10.808;2022-10-16T09:01:48;98509.59;;;17.84;84.43
64078;BME280;51039;49.696;10.808;2022-10-16T09:12:31;98504.63;;;19.73;77.21
64078;BME280;51039;49.696;10.808;2022-10-16T09:15:02;98514.78;;;19.71;78.03
64078;BME280;51039;49.696;10.808;2022-10-16T09:17:41;98517.25;;;19.73;77.29
64078;BME280;51039;49.696;10.808;2022-10-16T09:22:45;98524.50;;;18.86;80.34
64078;BME280;51039;49.696;10.808;2022-10-16T09:25:13;98534.25;;;18.70;81.76
64078;BME280;51039;49.696;10.808;2022-10-16T09:27:40;98530.22;;;18.23;84.27
64078;BME280;51039;49.696;10.808;2022-10-16T09:30:28;98532.88;;;18.23;83.09
64078;BME280;51039;49.696;10.808;2022-10-16T09:32:54;98529.97;;;18.24;82.42
64078;BME280;51039;49.696;10.808;2022-10-16T09:35:25;98540.72;;;18.08;84.15
64078;BME280;51039;49.696;10.808;2022-10-16T09:37:56;98535.63;;;18.28;83.27
64078;BME280;51039;49.696;10.808;2022-10-16T09:40:26;98534.69;;;18.61;82.72
64078;BME280;51039;49.696;10.808;2022-10-16T09:43:39;98546.00;;;18.86;81.90
64078;BME280;51039;49.696;10.808;2022-10-16T09:45:54;98548.19;;;18.89;81.35
64078;BME280;51039;49.696;10.808;2022-10-16T09:48:21;98544.75;;;19.53;79.29
64078;BME280;51039;49.696;10.808;2022-10-16T09:51:00;98549.56;;;19.83;77.69
64078;BME280;51039;49.696;10.808;2022-10-16T09:53:42;98546.03;;;19.77;78.01
64078;BME280;51039;49.696;10.808;2022-10-16T09:56:10;98547.22;;;19.27;79.14
64078;BME280;51039;49.696;10.808;2022-10-16T09:58:49;98554.69;;;19.52;77.30
64078;BME280;51039;49.696;10.808;2022-10-16T10:01:16;98545.66;;;19.69;77.79
64078;BME280;51039;49.696;10.808;2022-10-16T10:03:42;98550.16;;;19.90;76.55
64078;BME280;51039;49.696;10.808;2022-10-16T10:11:41;98558.38;;;20.16;75.28
64078;BME280;51039;49.696;10.808;2022-10-16T10:14:15;98554.22;;;20.40;74.54
64078;BME280;51039;49.696;10.808;2022-10-16T10:19:36;98566.47;;;20.21;74.33
64078;BME280;51039;49.696;10.808;2022-10-16T10:22:20;98568.09;;;20.22;75.63
64078;BME280;51039;49.696;10.808;2022-10-16T10:36:08;98558.97;;;19.80;77.01
64078;BME280;51039;49.696;10.808;2022-10-16T10:43:47;98558.31;;;20.06;76.30
64078;BME280;51039;49.696;10.808;2022-10-16T10:46:27;98553.13;;;20.36;74.85
64078;BME280;51039;49.696;10.808;2022-10-16T10:54:24;98549.53;;;20.84;73.45
64078;BME280;51039;49.696;10.808;2022-10-16T11:05:09;98571.19;;;21.40;72.18
64078;BME280;51039;49.696;10.808;2022-10-16T11:07:51;98558.56;;;21.46;71.85
64078;BME280;51039;49.696;10.808;2022-10-16T11:10:23;98565.03;;;21.81;69.64
64078;BME280;51039;49.696;10.808;2022-10-16T11:12:56;98559.81;;;22.30;68.10
64078;BME280;51039;49.696;10.808;2022-10-16T11:15:31;98559.28;;;22.33;67.75
64078;BME280;51039;49.696;10.808;2022-10-16T11:18:05;98563.19;;;22.67;67.50
64078;BME280;51039;49.696;10.808;2022-10-16T11:20:40;98556.28;;;23.05;64.00
64078;BME280;51039;49.696;10.808;2022-10-16T11:26:11;98570.59;;;22.35;68.17
64078;BME280;51039;49.696;10.808;2022-10-16T11:28:43;98567.41;;;22.03;67.77
64078;BME280;51039;49.696;10.808;2022-10-16T11:33:50;98575.47;;;22.18;67.74
64078;BME280;51039;49.696;10.808;2022-10-16T11:36:41;98568.78;;;21.90;67.96
64078;BME280;51039;49.696;10.808;2022-10-16T11:39:19;98577.69;;;21.54;69.64
64078;BME280;51039;49.696;10.808;2022-10-16T11:41:49;98584.81;;;20.87;72.23
64078;BME280;51039;49.696;10.808;2022-10-16T11:47:33;98592.50;;;20.58;76.72
64078;BME280;51039;49.696;10.808;2022-10-16T11:50:17;98606.47;;;20.50;77.09
64078;BME280;51039;49.696;10.808;2022-10-16T11:52:48;98627.84;;;20.29;77.05
64078;BME280;51039;49.696;10.808;2022-10-16T11:55:21;98617.78;;;20.14;79.15
64078;BME280;51039;49.696;10.808;2022-10-16T11:58:00;98610.03;;;20.18;78.88
64078;BME280;51039;49.696;10.808;2022-10-16T12:00:59;98610.97;;;20.39;79.23
64078;BME280;51039;49.696;10.808;2022-10-16T12:03:46;98603.78;;;20.55;78.98
64078;BME280;51039;49.696;10.808;2022-10-16T12:09:13;98597.03;;;21.36;75.57
64078;BME280;51039;49.696;10.808;2022-10-16T12:11:46;98597.34;;;21.34;75.88
64078;BME280;51039;49.696;10.808;2022-10-16T12:16:59;98581.09;;;21.09;71.83
64078;BME280;51039;49.696;10.808;2022-10-16T12:19:27;98583.00;;;21.08;72.67
64078;BME280;51039;49.696;10.808;2022-10-16T12:21:58;98581.69;;;21.26;72.24
64078;BME280;51039;49.696;10.808;2022-10-16T12:26:58;98578.56;;;20.66;73.57
64078;BME280;51039;49.696;10.808;2022-10-16T12:29:35;98574.41;;;21.11;73.28
64078;BME280;51039;49.696;10.808;2022-10-16T12:32:21;98576.00;;;21.23;72.90
64078;BME280;51039;49.696;10.808;2022-10-16T12:35:00;98570.84;;;20.90;72.85
64078;BME280;51039;49.696;10.808;2022-10-16T12:37:31;98574.53;;;20.74;74.58
64078;BME280;51039;49.696;10.808;2022-10-16T12:39:59;98574.97;;;20.50;76.00
64078;BME280;51039;49.696;10.808;2022-10-16T12:42:40;98567.03;;;20.28;76.79
64078;BME280;51039;49.696;10.808;2022-10-16T12:45:58;98569.19;;;20.26;77.03
64078;BME280;51039;49.696;10.808;2022-10-16T12:47:55;98570.78;;;20.17;78.41
64078;BME280;51039;49.696;10.808;2022-10-16T12:50:34;98564.63;;;20.32;77.80
64078;BME280;51039;49.696;10.808;2022-10-16T12:53:02;98571.38;;;20.29;77.24
64078;BME280;51039;49.696;10.808;2022-10-16T12:56:17;98572.16;;;20.30;77.48
64078;BME280;51039;49.696;10.808;2022-10-16T13:01:13;98569.56;;;20.45;76.44
64078;BME280;51039;49.696;10.808;2022-10-16T13:06:39;98580.53;;;20.33;76.88
64078;BME280;51039;49.696;10.808;2022-10-16T13:09:23;98581.78;;;20.20;76.34
64078;BME280;51039;49.696;10.808;2022-10-16T13:14:44;98576.81;;;20.45;77.63
64078;BME280;51039;49.696;10.808;2022-10-16T13:17:36;98573.66;;;20.58;77.33
64078;BME280;51039;49.696;10.808;2022-10-16T13:30:26;98592.59;;;20.73;74.12
64078;BME280;51039;49.696;10.808;2022-10-16T13:35:28;98592.88;;;20.82;74.56
64078;BME280;51039;49.696;10.808;2022-10-16T13:38:31;98592.03;;;20.71;74.24
64078;BME280;51039;49.696;10.808;2022-10-16T13:41:02;98601.19;;;20.65;74.40
64078;BME280;51039;49.696;10.808;2022-10-16T13:46:16;98607.44;;;20.91;73.81
64078;BME280;51039;49.696;10.808;2022-10-16T13:51:54;98601.28;;;21.01;72.69
64078;BME280;51039;49.696;10.808;2022-10-16T13:54:24;98601.25;;;20.91;73.97
64078;BME280;51039;49.696;10.808;2022-10-16T13:56:51;98597.97;;;20.73;74.10
64078;BME280;51039;49.696;10.808;2022-10-16T13:59:24;98606.56;;;20.70;73.99
64078;BME280;51039;49.696;10.808;2022-10-16T14:01:58;98603.63;;;20.72;73.32
64078;BME280;51039;49.696;10.808;2022-10-16T14:04:31;98599.47;;;20.59;74.39
64078;BME280;51039;49.696;10.808;2022-10-16T14:06:58;98604.31;;;20.52;74.64
64078;BME280;51039;49.696;10.808;2022-10-16T14:09:24;98601.84;;;20.40;75.30
64078;BME280;51039;49.696;10.808;2022-10-16T14:11:56;98612.38;;;20.52;74.71
64078;BME280;51039;49.696;10.808;2022-10-16T14:14:34;98607.56;;;20.59;74.29
64078;BME280;51039;49.696;10.808;2022-10-16T14:17:05;98610.84;;;20.66;73.11
64078;BME280;51039;49.696;10.808;2022-10-16T14:19:30;98611.72;;;20.77;73.57
64078;BME280;51039;49.696;10.808;2022-10-16T14:21:56;98610.34;;;20.74;72.88
64078;BME280;51039;49.696;10.808;2022-10-16T14:26:51;98611.41;;;20.68;73.19
64078;BME280;51039;49.696;10.808;2022-10-16T14:29:20;98621.63;;;20.66;70.99
64078;BME280;51039;49.696;10.808;2022-10-16T14:32:04;98622.34;;;20.56;71.57
64078;BME280;51039;49.696;10.808;2022-10-16T14:34:34;98620.13;;;20.43;71.61
64078;BME280;51039;49.696;10.808;2022-10-16T14:37:23;98611.72;;;20.29;73.46
64078;BME280;51039;49.696;10.808;2022-10-16T14:39:51;98610.28;;;20.16;73.82
64078;BME280;51039;49.696;10.808;2022-10-16T14:42:17;98613.22;;;20.15;73.64
64078;BME280;51039;49.696;10.808;2022-10-16T14:44:45;98614.25;;;20.09;74.54
64078;BME280;51039;49.696;10.808;2022-10-16T14:47:16;98613.72;;;20.07;74.70
64078;BME280;51039;49.696;10.808;2022-10-16T14:49:47;98621.81;;;20.12;75.09
64078;BME280;51039;49.696;10.808;2022-10-16T14:52:13;98610.31;;;20.22;74.55
64078;BME280;51039;49.696;10.808;2022-10-16T14:54:39;98609.88;;;20.35;74.55
64078;BME280;51039;49.696;10.808;2022-10-16T14:57:05;98613.59;;;20.29;74.91
64078;BME280;51039;49.696;10.808;2022-10-16T14:59:34;98619.19;;;20.22;75.10
64078;BME280;51039;49.696;10.808;2022-10-16T15:02:09;98614.84;;;20.16;75.26